Time;durP1;ratioP1;P1;durP2;ratioP2;P2;SDS_P1;SDS_P2;PMS_P1;PMS_P2;Temp;Humidity;BMP_temperature;BMP_pressure;BME280_temperature;BME280_humidity;BME280_pressure;Samples;Min_cycle;Max_cycle;Signal;HPM_P1;HPM_P2
2022/10/31 00:02:10;;;;;;;;;65.33;49.33;;;;;11.73;100.00;100289.44;6265069;20;3631046;-73
2022/10/31 00:04:39;;;;;;;;;68.00;50.67;;;;;11.67;100.00;100287.09;6267581;20;3623193;-74
2022/10/31 00:07:09;;;;;;;;;67.67;51.67;;;;;11.79;100.00;100291.75;6300163;20;3630668;-74
2022/10/31 00:09:39;;;;;;;;;64.00;47.50;;;;;11.71;100.00;100288.63;6302875;20;3628499;-73
2022/10/31 00:12:10;;;;;;;;;69.00;50.67;;;;;11.73;100.00;100284.03;6299154;20;3632680;-70
2022/10/31 00:14:39;;;;;;;;;65.00;48.00;;;;;11.84;100.00;100284.28;6267110;20;3634659;-72
2022/10/31 00:17:08;;;;;;;;;60.67;48.00;;;;;11.95;100.00;100289.09;6303153;20;3617024;-73
2022/10/31 00:19:38;;;;;;;;;72.00;52.50;;;;;11.83;100.00;100290.63;6269510;20;3646182;-72
2022/10/31 00:22:07;;;;;;;;;69.25;50.00;;;;;11.72;100.00;100293.09;6301372;20;3645232;-71
2022/10/31 00:24:37;;;;;;;;;72.33;50.00;;;;;11.80;100.00;100286.31;6297634;20;3648227;-71
2022/10/31 00:27:06;;;;;;;;;69.00;49.00;;;;;11.79;100.00;100291.75;6266559;20;2774413;-72
2022/10/31 00:29:35;;;;;;;;;66.00;50.00;;;;;11.78;100.00;100284.66;6270890;20;3609693;-69
2022/10/31 00:32:04;;;;;;;;;64.00;49.00;;;;;11.86;100.00;100277.03;6269672;20;3616927;-72
2022/10/31 00:34:34;;;;;;;;;67.00;48.33;;;;;11.87;100.00;100281.44;6302757;20;3624288;-72
2022/10/31 00:37:04;;;;;;;;;65.00;49.50;;;;;11.89;100.00;100279.53;6303575;20;3632557;-71
2022/10/31 00:39:33;;;;;;;;;64.50;51.00;;;;;11.94;100.00;100266.69;6302031;20;3616955;-71
2022/10/31 00:42:02;;;;;;;;;67.00;51.67;;;;;11.98;100.00;100279.03;6303204;20;3613814;-72
2022/10/31 00:44:32;;;;;;;;;69.25;51.75;;;;;11.73;100.00;100275.97;6272021;20;3630513;-71
2022/10/31 00:47:02;;;;;;;;;62.67;50.00;;;;;11.75;100.00;100276.75;6300588;20;2867180;-71
2022/10/31 00:49:30;;;;;;;;;77.50;54.50;;;;;11.72;100.00;100260.81;6295381;20;1925241;-70
2022/10/31 00:51:59;;;;;;;;;67.00;51.00;;;;;11.71;100.00;100269.81;6265892;20;3625380;-70
2022/10/31 00:54:30;;;;;;;;;67.00;50.25;;;;;11.66;100.00;100275.44;6298324;20;3633695;-71
2022/10/31 00:57:01;;;;;;;;;72.33;50.00;;;;;11.63;100.00;100272.94;6293404;20;3645158;-72
2022/10/31 00:59:31;;;;;;;;;71.67;51.00;;;;;11.50;100.00;100262.00;6264928;20;3645108;-71
2022/10/31 01:02:03;;;;;;;;;61.33;47.67;;;;;11.56;100.00;100260.81;6264376;20;3629431;-72
2022/10/31 01:04:33;;;;;;;;;68.25;49.50;;;;;11.50;100.00;100255.75;6303906;20;3633687;-71
2022/10/31 01:07:01;;;;;;;;;70.00;51.00;;;;;11.56;100.00;100253.59;6299079;20;2777391;-71
2022/10/31 01:09:31;;;;;;;;;65.00;45.33;;;;;11.56;100.00;100256.28;6267059;20;3640878;-72
2022/10/31 01:12:01;;;;;;;;;69.33;48.00;;;;;11.51;100.00;100257.50;6264717;20;3638911;-71
2022/10/31 01:14:31;;;;;;;;;66.33;49.33;;;;;11.41;100.00;100241.00;6262233;20;3636863;-71
2022/10/31 01:17:00;;;;;;;;;66.67;47.67;;;;;11.64;100.00;100264.78;6299015;20;3622269;-74
2022/10/31 01:19:30;;;;;;;;;65.33;47.00;;;;;11.45;100.00;100253.31;6263934;20;3628353;-71
2022/10/31 01:21:59;;;;;;;;;67.33;47.33;;;;;11.47;100.00;100267.53;6264900;20;3619018;-74
2022/10/31 01:24:29;;;;;;;;;67.33;48.67;;;;;11.48;100.00;100253.16;6298085;20;3645220;-73
2022/10/31 01:27:01;;;;;;;;;70.00;47.67;;;;;11.55;100.00;100254.53;6263248;20;3627443;-72
2022/10/31 01:29:31;;;;;;;;;65.50;49.25;;;;;11.24;100.00;100258.06;6299778;20;3621168;-72
2022/10/31 01:32:03;;;;;;;;;58.67;47.33;;;;;11.42;100.00;100250.78;6301657;20;3627348;-72
2022/10/31 01:34:33;;;;;;;;;69.33;51.33;;;;;11.40;100.00;100250.00;6265155;20;3646109;-73
2022/10/31 01:37:07;;;;;;;;;64.00;47.00;;;;;11.37;100.00;100245.69;6263668;20;3644065;-74
2022/10/31 01:39:39;;;;;;;;;65.33;47.67;;;;;11.38;100.00;100243.88;6263846;20;3631563;-71
2022/10/31 01:42:20;;;;;;;;;66.00;48.67;;;;;11.39;100.00;100254.53;6296591;20;3632696;-72
2022/10/31 01:45:00;;;;;;;;;64.75;49.00;;;;;11.38;100.00;100247.44;6266895;20;3618882;-70
2022/10/31 01:47:50;;;;;;;;;64.00;45.50;;;;;11.46;100.00;100248.81;6302690;20;4402412;-70
2022/10/31 01:50:36;;;;;;;;;64.75;47.75;;;;;11.21;100.00;100231.34;6304696;20;3631513;-72
2022/10/31 01:53:08;;;;;;;;;64.00;47.50;;;;;11.37;100.00;100234.06;6303474;20;4390840;-71
2022/10/31 01:55:45;;;;;;;;;60.25;46.00;;;;;11.21;100.00;100244.78;6303572;20;4385151;-72
2022/10/31 01:58:23;;;;;;;;;63.25;46.50;;;;;11.21;100.00;100234.91;6305676;20;3639918;-70
2022/10/31 02:00:59;;;;;;;;;56.00;44.00;;;;;11.16;100.00;100242.38;6305061;20;3619113;-73
2022/10/31 02:03:35;;;;;;;;;58.50;44.00;;;;;11.19;100.00;100230.59;6275452;20;4384624;-72
2022/10/31 02:06:19;;;;;;;;;62.25;46.75;;;;;11.16;100.00;100239.69;6305928;20;4403474;-74
2022/10/31 02:08:49;;;;;;;;;55.67;42.00;;;;;11.13;100.00;100242.53;6301386;20;3626308;-73
2022/10/31 02:11:18;;;;;;;;;60.75;44.00;;;;;11.05;100.00;100242.09;6306832;20;4409702;-71
2022/10/31 02:13:48;;;;;;;;;61.50;45.25;;;;;11.05;100.00;100236.72;6302673;20;4396190;-71
2022/10/31 02:16:18;;;;;;;;;64.00;42.00;;;;;11.11;100.00;100239.09;6301541;20;4399249;-71
2022/10/31 02:18:48;;;;;;;;;58.25;42.00;;;;;11.09;100.00;100240.97;6304723;20;3622211;-73
2022/10/31 02:21:26;;;;;;;;;58.67;41.00;;;;;11.17;100.00;100238.72;6303242;20;3633778;-71
2022/10/31 02:24:45;;;;;;;;;57.75;42.00;;;;;11.05;100.00;100239.41;6269890;20;3630699;-70
2022/10/31 02:28:15;;;;;;;;;58.00;42.50;;;;;11.24;100.00;100239.25;6304657;20;4386721;-72
2022/10/31 02:31:52;;;;;;;;;51.00;39.33;;;;;11.31;100.00;100242.47;6297395;20;3610757;-71
2022/10/31 02:34:40;;;;;;;;;53.67;41.33;;;;;11.05;100.00;100239.41;6307303;20;3614887;-70
2022/10/31 02:38:05;;;;;;;;;53.33;43.33;;;;;11.04;100.00;100242.19;6275234;20;3604462;-70
2022/10/31 02:41:07;;;;;;;;;59.50;44.00;;;;;11.23;100.00;100250.97;6271484;20;3596099;-71
2022/10/31 02:43:55;;;;;;;;;55.00;41.00;;;;;11.14;100.00;100246.97;6300809;20;3637787;-73
2022/10/31 02:46:43;;;;;;;;;56.75;43.00;;;;;11.03;100.00;100243.97;6306639;20;3614894;-74
2022/10/31 02:49:34;;;;;;;;;51.00;39.00;;;;;11.22;100.00;100251.94;6310607;20;3603404;-72
2022/10/31 02:52:30;;;;;;;;;61.33;44.33;;;;;11.17;100.00;100236.03;6273928;20;3639856;-72
2022/10/31 02:55:27;;;;;;;;;48.33;41.67;;;;;11.18;100.00;100251.22;6272459;20;3608652;-72
2022/10/31 02:58:09;;;;;;;;;48.00;39.00;;;;;11.26;100.00;100253.47;6268341;20;2576556;-69
2022/10/31 03:01:20;;;;;;;;;57.67;42.00;;;;;11.35;100.00;100255.66;6270606;20;3635707;-70
2022/10/31 03:04:30;;;;;;;;;55.00;42.33;;;;;11.23;100.00;100263.53;6266976;20;3624354;-70
2022/10/31 03:07:55;;;;;;;;;55.50;40.00;;;;;11.28;100.00;100256.09;6304394;20;3641035;-70
2022/10/31 03:10:45;;;;;;;;;59.00;44.00;;;;;11.27;100.00;100270.47;6304611;20;3624277;-73
2022/10/31 03:13:41;;;;;;;;;58.67;43.00;;;;;11.32;100.00;100271.97;6269468;20;3630614;-71
2022/10/31 03:16:45;;;;;;;;;56.75;41.50;;;;;11.12;100.00;100267.69;6303185;20;3639105;-70
2022/10/31 03:19:43;;;;;;;;;53.00;38.00;;;;;11.11;100.00;100265.97;6306471;20;3597315;-73
2022/10/31 03:22:28;;;;;;;;;53.33;41.00;;;;;11.14;100.00;100263.09;6275533;20;3626308;-71
2022/10/31 03:25:02;;;;;;;;;51.50;37.50;;;;;11.12;100.00;100273.06;6270085;20;2861933;-71
2022/10/31 03:27:36;;;;;;;;;52.00;38.00;;;;;11.11;100.00;100276.69;6268301;20;3615960;-72
2022/10/31 03:30:07;;;;;;;;;50.00;38.00;;;;;11.21;100.00;100272.53;6300365;20;3596067;-73
2022/10/31 03:32:51;;;;;;;;;50.67;38.00;;;;;11.13;100.00;100268.53;6302880;20;3613965;-72
2022/10/31 03:35:26;;;;;;;;;51.00;37.67;;;;;11.19;100.00;100270.91;6271130;20;3607620;-70
2022/10/31 03:37:57;;;;;;;;;51.67;40.67;;;;;11.15;100.00;100275.56;6299195;20;3612749;-70
2022/10/31 03:40:27;;;;;;;;;57.67;40.33;;;;;11.29;100.00;100268.56;6299831;20;3651434;-69
2022/10/31 03:43:09;;;;;;;;;45.67;34.33;;;;;11.47;100.00;100275.63;6263964;20;3615906;-72
2022/10/31 03:45:46;;;;;;;;;48.00;36.33;;;;;11.38;100.00;100276.13;6301705;20;3598206;-71
2022/10/31 03:48:20;;;;;;;;;49.67;37.67;;;;;11.43;100.00;100272.25;6269546;20;3618004;-70
2022/10/31 03:51:27;;;;;;;;;50.00;38.67;;;;;11.37;100.00;100271.69;6301024;20;3602509;-72
2022/10/31 03:54:23;;;;;;;;;38.33;34.67;;;;;11.27;100.00;100276.72;6270208;20;3584739;-70
2022/10/31 03:57:16;;;;;;;;;52.33;40.67;;;;;11.31;100.00;100277.41;6268145;20;3610679;-72
2022/10/31 03:59:55;;;;;;;;;56.33;41.33;;;;;11.29;100.00;100276.63;6298611;20;3624292;-74
2022/10/31 04:02:32;;;;;;;;;51.00;39.00;;;;;11.16;100.00;100281.81;6268569;20;3615877;-70
2022/10/31 04:05:02;;;;;;;;;51.67;41.00;;;;;11.16;100.00;100274.63;6304151;20;3606522;-73
2022/10/31 04:07:39;;;;;;;;;51.33;35.00;;;;;11.32;100.00;100274.66;6274285;20;3624235;-71
2022/10/31 04:10:14;;;;;;;;;58.75;43.75;;;;;11.27;100.00;100281.22;6273686;20;3632706;-70
2022/10/31 04:12:54;;;;;;;;;59.50;42.75;;;;;11.29;100.00;100285.56;6303758;20;3626358;-70
2022/10/31 04:15:26;;;;;;;;;47.00;34.33;;;;;11.20;100.00;100273.50;6301255;20;3598301;-70
2022/10/31 04:18:00;;;;;;;;;54.33;39.00;;;;;11.23;100.00;100279.66;6269874;20;3637761;-70
2022/10/31 04:20:40;;;;;;;;;53.67;41.33;;;;;11.23;100.00;100268.91;6306550;20;3621148;-73
2022/10/31 04:23:25;;;;;;;;;52.00;35.00;;;;;11.24;100.00;100276.00;6270016;20;3616047;-72
2022/10/31 04:25:54;;;;;;;;;51.00;39.00;;;;;11.28;100.00;100277.59;6298325;20;2749407;-74
2022/10/31 04:28:23;;;;;;;;;44.33;37.00;;;;;11.10;100.00;100283.00;6270134;20;3598302;-71
2022/10/31 04:30:53;;;;;;;;;49.67;36.00;;;;;11.12;100.00;100289.19;6271434;20;3618993;-71
2022/10/31 04:33:22;;;;;;;;;44.33;35.00;;;;;11.10;100.00;100291.06;6300296;20;2852505;-72
2022/10/31 04:35:51;;;;;;;;;41.00;35.50;;;;;11.09;100.00;100289.34;6300375;20;2842033;-71
2022/10/31 04:38:20;;;;;;;;;51.00;38.33;;;;;11.11;100.00;100290.13;6267975;20;2865009;-75
2022/10/31 04:40:49;;;;;;;;;53.67;39.33;;;;;11.18;100.00;100286.16;6305310;20;3617380;-71
2022/10/31 04:43:18;;;;;;;;;45.67;37.67;;;;;11.17;100.00;100294.31;6275006;20;3592012;-74
2022/10/31 04:45:48;;;;;;;;;47.33;35.00;;;;;11.13;100.00;100292.72;6269531;20;3597248;-75
2022/10/31 04:48:17;;;;;;;;;48.00;37.33;;;;;11.08;100.00;100274.16;6306699;20;3603443;-73
2022/10/31 04:50:46;;;;;;;;;50.33;38.00;;;;;11.23;100.00;100293.09;6272664;20;2859763;-73
2022/10/31 04:53:15;;;;;;;;;49.00;38.67;;;;;11.14;100.00;100298.03;6304081;20;3597729;-76
2022/10/31 04:55:44;;;;;;;;;46.33;37.00;;;;;10.98;100.00;100287.25;6271939;20;2847185;-73
2022/10/31 04:58:14;;;;;;;;;42.67;36.00;;;;;11.06;100.00;100294.91;6301723;20;2855592;-72
2022/10/31 05:01:02;;;;;;;;;49.67;35.67;;;;;11.02;100.00;100281.69;6305681;20;3606686;-72
2022/10/31 05:03:31;;;;;;;;;45.67;33.33;;;;;10.92;100.00;100286.69;6279214;20;3614847;-73
2022/10/31 05:06:00;;;;;;;;;39.00;34.00;;;;;10.80;100.00;100290.91;6273523;20;3576416;-73
2022/10/31 05:08:29;;;;;;;;;38.67;34.00;;;;;10.98;100.00;100286.38;6267215;20;3596093;-71
2022/10/31 05:11:04;;;;;;;;;50.67;36.33;;;;;11.03;100.00;100295.03;6301023;20;3613807;-76
2022/10/31 05:13:33;;;;;;;;;44.00;35.00;;;;;11.00;100.00;100284.44;6302586;20;3603435;-73
2022/10/31 05:16:04;;;;;;;;;46.88;36.38;;;;;11.03;100.00;100297.72;6293168;20;3597457;-75
2022/10/31 05:18:34;;;;;;;;;43.33;34.00;;;;;10.97;100.00;100298.06;6267414;20;2861906;-71
2022/10/31 05:21:03;;;;;;;;;44.00;33.67;;;;;10.92;100.00;100303.66;6307747;20;3607534;-74
2022/10/31 05:23:31;;;;;;;;;36.67;33.67;;;;;10.94;100.00;100307.16;6271269;20;3573187;-73
2022/10/31 05:26:01;;;;;;;;;41.67;34.67;;;;;10.95;100.00;100305.31;6269372;20;2857735;-72
2022/10/31 05:28:29;;;;;;;;;41.67;34.00;;;;;10.89;100.00;100302.97;6302014;20;3605510;-73
2022/10/31 05:30:58;;;;;;;;;45.33;33.67;;;;;10.87;100.00;100316.47;6266770;20;3620172;-75
2022/10/31 05:33:27;;;;;;;;;46.00;35.67;;;;;10.95;100.00;100308.00;6270975;20;3609648;-69
2022/10/31 05:35:56;;;;;;;;;34.33;32.33;;;;;10.89;100.00;100297.59;6269022;20;3617026;-73
2022/10/31 05:38:25;;;;;;;;;42.00;32.67;;;;;10.79;100.00;100309.78;6300327;20;3602398;-72
2022/10/31 05:41:00;;;;;;;;;46.67;35.33;;;;;10.85;100.00;100317.50;6270605;20;3616912;-75
2022/10/31 05:43:30;;;;;;;;;41.00;32.00;;;;;10.95;100.00;100314.28;6267068;20;2752570;-72
2022/10/31 05:45:59;;;;;;;;;37.00;25.33;;;;;11.04;100.00;100307.53;6267525;20;3624225;-72
2022/10/31 05:48:27;;;;;;;;;38.67;31.67;;;;;11.07;100.00;100315.44;6272911;20;3606564;-72
2022/10/31 05:50:56;;;;;;;;;40.67;33.67;;;;;10.93;100.00;100318.00;6267306;20;3600254;-71
2022/10/31 05:53:25;;;;;;;;;32.67;30.67;;;;;11.08;100.00;100313.59;6265019;20;3602432;-71
2022/10/31 05:55:54;;;;;;;;;39.67;31.67;;;;;11.12;100.00;100324.13;6300968;20;3623314;-71
2022/10/31 05:58:23;;;;;;;;;33.67;29.67;;;;;11.20;100.00;100324.56;6269610;20;2844143;-75
2022/10/31 06:00:53;;;;;;;;;32.67;27.00;;;;;11.11;100.00;100317.00;6299055;20;3571320;-72
2022/10/31 06:03:22;;;;;;;;;36.00;29.00;;;;;10.92;100.00;100317.09;6270513;20;3585673;-72
2022/10/31 06:05:50;;;;;;;;;31.00;29.50;;;;;11.09;100.00;100326.97;6262586;20;2850316;-72
2022/10/31 06:08:23;;;;;;;;;28.50;26.00;;;;;10.97;100.00;100327.63;6267782;20;2830530;-72
2022/10/31 06:10:53;;;;;;;;;31.33;25.00;;;;;11.20;100.00;100327.25;6272354;20;3599272;-72
2022/10/31 06:13:22;;;;;;;;;28.50;26.00;;;;;11.01;100.00;100323.81;6263440;20;2846141;-71
2022/10/31 06:15:51;;;;;;;;;28.50;26.50;;;;;11.14;100.00;100324.91;6267758;20;2848207;-71
2022/10/31 06:18:20;;;;;;;;;29.67;28.67;;;;;11.05;100.00;100328.06;6266175;20;2849310;-73
2022/10/31 06:20:51;;;;;;;;;35.00;28.33;;;;;11.31;100.00;100320.44;6297821;20;3607625;-73
2022/10/31 06:23:20;;;;;;;;;29.33;26.33;;;;;11.18;100.00;100321.09;6301110;20;3576456;-73
2022/10/31 06:25:51;;;;;;;;;31.67;27.00;;;;;11.20;100.00;100332.63;6268171;20;2845405;-71
2022/10/31 06:28:20;;;;;;;;;31.33;28.67;;;;;11.15;100.00;100337.38;6298500;20;3596149;-73
2022/10/31 06:30:49;;;;;;;;;34.00;29.67;;;;;11.04;100.00;100334.41;6298222;20;3607757;-70
2022/10/31 06:33:18;;;;;;;;;33.67;25.00;;;;;11.31;100.00;100342.81;6273829;20;3599209;-70
2022/10/31 06:35:47;;;;;;;;;35.00;29.67;;;;;11.22;100.00;100332.56;6272887;20;3607669;-71
2022/10/31 06:38:19;;;;;;;;;31.67;27.67;;;;;11.51;100.00;100330.97;6308254;20;3594170;-72
2022/10/31 06:40:49;;;;;;;;;33.33;26.67;;;;;11.32;100.00;100328.44;6273163;20;3608589;-71
2022/10/31 06:43:18;;;;;;;;;28.00;24.67;;;;;11.24;100.00;100335.16;6301722;20;3568110;-74
2022/10/31 06:45:48;;;;;;;;;29.00;27.33;;;;;11.25;100.00;100336.91;6270360;20;2849331;-72
2022/10/31 06:48:16;;;;;;;;;28.67;24.33;;;;;11.16;100.00;100351.69;6309893;20;3599247;-70
2022/10/31 06:50:46;;;;;;;;;24.67;20.00;;;;;11.45;100.00;100342.03;6269084;20;2852434;-71
2022/10/31 06:53:15;;;;;;;;;26.00;22.50;;;;;11.25;100.00;100340.47;6301695;20;2838844;-71
2022/10/31 06:55:45;;;;;;;;;61.67;46.33;;;;;11.45;100.00;100336.66;6270217;20;3630556;-71
2022/10/31 06:58:17;;;;;;;;;59.25;43.75;;;;;11.42;100.00;100331.47;6304955;20;3642005;-72
2022/10/31 07:00:47;;;;;;;;;120.33;106.33;;;;;11.32;100.00;100338.28;6303601;20;3706540;-71
2022/10/31 07:03:20;;;;;;;;;42.67;35.67;;;;;11.35;100.00;100338.16;6299808;20;3591918;-72
2022/10/31 07:05:48;;;;;;;;;37.33;30.67;;;;;11.38;100.00;100354.97;6305761;20;3613822;-72
2022/10/31 07:08:17;;;;;;;;;32.00;25.00;;;;;11.26;100.00;100335.94;6274022;20;3588872;-70
2022/10/31 07:10:54;;;;;;;;;29.00;23.50;;;;;11.42;100.00;100350.28;6268428;20;2846139;-72
2022/10/31 07:13:25;;;;;;;;;30.50;29.50;;;;;11.38;100.00;100356.81;6267147;20;2858790;-71
2022/10/31 07:16:03;;;;;;;;;35.33;32.00;;;;;11.42;100.00;100355.66;6269121;20;3590896;-73
2022/10/31 07:18:31;;;;;;;;;33.67;27.00;;;;;11.56;100.00;100357.63;6302186;20;3605600;-71
2022/10/31 07:21:01;;;;;;;;;33.67;26.33;;;;;11.48;100.00;100355.34;6271025;20;2854707;-71
2022/10/31 07:23:29;;;;;;;;;26.33;23.00;;;;;11.27;100.00;100361.84;6303459;20;3575381;-70
2022/10/31 07:25:59;;;;;;;;;21.00;20.67;;;;;11.44;100.00;100364.53;6301413;20;3583622;-71
2022/10/31 07:28:28;;;;;;;;;27.50;25.50;;;;;11.36;100.00;100361.38;6271093;20;2848307;-71
2022/10/31 07:30:58;;;;;;;;;24.50;23.50;;;;;11.20;100.00;100356.81;6265676;20;2835744;-72
2022/10/31 07:33:27;;;;;;;;;23.50;21.50;;;;;11.62;100.00;100360.81;6273184;20;2841953;-72
2022/10/31 07:35:56;;;;;;;;;23.00;23.00;;;;;11.65;100.00;100357.97;6265749;20;2851473;-70
2022/10/31 07:38:26;;;;;;;;;11.80;6.40;;;;;11.46;100.00;100353.69;6320264;20;2787776;-71
2022/10/31 07:40:54;;;;;;;;;14.00;14.00;;;;;11.39;100.00;100366.59;6268187;20;3537729;-71
2022/10/31 07:43:22;;;;;;;;;27.00;22.50;;;;;11.41;100.00;100362.00;6300536;20;2487757;-71
2022/10/31 07:45:52;;;;;;;;;22.50;15.50;;;;;11.16;100.00;100367.81;6266555;20;2832680;-71
2022/10/31 07:48:21;;;;;;;;;29.00;24.50;;;;;11.31;100.00;100372.38;6226284;20;2848342;-71
2022/10/31 07:50:50;;;;;;;;;24.50;22.00;;;;;11.32;100.00;100376.81;6267905;20;2842197;-72
2022/10/31 07:53:20;;;;;;;;;28.00;25.00;;;;;11.35;100.00;100351.59;6262499;20;2853589;-71
2022/10/31 07:55:48;;;;;;;;;31.00;24.67;;;;;11.34;100.00;100360.59;6304626;20;3583583;-73
2022/10/31 07:58:18;;;;;;;;;27.00;23.00;;;;;11.45;100.00;100362.69;6271488;20;2842035;-72
2022/10/31 08:00:48;;;;;;;;;28.00;26.00;;;;;11.45;100.00;100360.00;6265280;20;2847825;-71
2022/10/31 08:03:19;;;;;;;;;32.67;22.67;;;;;11.53;100.00;100366.72;6269048;20;2862995;-71
2022/10/31 08:05:48;;;;;;;;;29.00;26.33;;;;;11.46;100.00;100373.38;6300140;20;3582681;-71
2022/10/31 08:08:17;;;;;;;;;25.00;25.00;;;;;11.52;100.00;100367.66;6266856;20;2847660;-71
2022/10/31 08:10:46;;;;;;;;;24.00;23.00;;;;;11.35;100.00;100378.47;6269829;20;2839974;-70
2022/10/31 08:13:15;;;;;;;;;22.00;22.00;;;;;11.41;100.00;100380.81;6303134;20;3577373;-71
2022/10/31 08:15:49;;;;;;;;;27.00;24.00;;;;;11.50;100.00;100368.69;6267792;20;2835729;-71
2022/10/31 08:18:19;;;;;;;;;32.67;25.33;;;;;11.44;100.00;100372.59;6268561;20;2848338;-70
2022/10/31 08:20:47;;;;;;;;;19.33;19.33;;;;;11.38;100.00;100375.63;6303394;20;3577477;-70
2022/10/31 08:23:16;;;;;;;;;40.00;31.67;;;;;11.37;100.00;100379.25;6299512;20;3607549;-70
2022/10/31 08:25:47;;;;;;;;;26.00;24.50;;;;;11.40;100.00;100382.66;6268549;20;2840947;-71
2022/10/31 08:28:16;;;;;;;;;28.67;26.67;;;;;11.42;100.00;100377.16;6272059;20;2840042;-71
2022/10/31 08:30:46;;;;;;;;;23.00;22.33;;;;;11.39;100.00;100385.41;6301054;20;3580585;-70
2022/10/31 08:33:18;;;;;;;;;24.00;21.00;;;;;11.56;100.00;100384.50;6270057;20;2845139;-72
2022/10/31 08:35:47;;;;;;;;;27.67;25.00;;;;;11.44;100.00;100386.03;6271334;20;3604455;-73
2022/10/31 08:38:16;;;;;;;;;26.00;24.00;;;;;11.32;100.00;100381.31;6268952;20;2847161;-71
2022/10/31 08:40:49;;;;;;;;;24.50;22.00;;;;;11.45;100.00;100398.50;6268241;20;2844150;-72
2022/10/31 08:43:19;;;;;;;;;24.00;21.00;;;;;11.51;100.00;100382.06;6266047;20;2846157;-71
2022/10/31 08:45:50;;;;;;;;;30.67;23.00;;;;;11.47;100.00;100385.88;6265540;20;3601395;-74
2022/10/31 08:48:18;;;;;;;;;30.67;26.67;;;;;11.63;100.00;100391.28;6305313;20;3582693;-74
2022/10/31 08:50:48;;;;;;;;;24.00;20.00;;;;;11.59;100.00;100389.72;6268775;20;2836760;-74
2022/10/31 08:53:19;;;;;;;;;33.67;30.33;;;;;11.64;100.00;100380.44;6268709;20;3600251;-74
2022/10/31 08:55:49;;;;;;;;;34.00;25.33;;;;;11.63;100.00;100391.28;6271513;20;2861874;-70
2022/10/31 08:58:20;;;;;;;;;26.00;24.33;;;;;11.57;100.00;100381.72;6306685;20;3591924;-70
2022/10/31 09:00:53;;;;;;;;;29.00;23.50;;;;;11.68;100.00;100393.72;6268363;20;2853378;-71
2022/10/31 09:03:27;;;;;;;;;37.00;31.00;;;;;11.71;100.00;100394.41;6269306;20;3608682;-70
2022/10/31 09:06:02;;;;;;;;;30.33;25.00;;;;;11.65;100.00;100387.53;6266839;20;2851002;-73
2022/10/31 09:08:33;;;;;;;;;27.33;25.00;;;;;11.68;100.00;100393.72;6299417;20;2854537;-72
2022/10/31 09:11:03;;;;;;;;;29.67;28.33;;;;;11.62;100.00;100390.41;6304781;20;3588855;-72
2022/10/31 09:13:33;;;;;;;;;29.50;25.50;;;;;11.62;100.00;100389.56;6264184;20;2848268;-70
2022/10/31 09:16:09;;;;;;;;;30.33;27.00;;;;;11.61;100.00;100383.31;6265476;20;3608052;-72
2022/10/31 09:18:38;;;;;;;;;59.50;43.00;;;;;11.69;100.00;100400.81;6304440;20;3630515;-72
2022/10/31 09:21:08;;;;;;;;;27.67;25.33;;;;;11.58;100.00;100388.81;6297875;20;3577510;-71
2022/10/31 09:23:37;;;;;;;;;27.00;24.33;;;;;11.52;100.00;100399.94;6270454;20;2844063;-70
2022/10/31 09:26:06;;;;;;;;;24.67;22.00;;;;;11.61;100.00;100402.13;6302779;20;3583681;-69
2022/10/31 09:28:35;;;;;;;;;23.50;23.50;;;;;11.41;100.00;100405.88;6265697;20;2831632;-71
2022/10/31 09:31:04;;;;;;;;;30.50;23.00;;;;;11.56;100.00;100406.91;6270402;20;2866005;-70
2022/10/31 09:33:33;;;;;;;;;29.00;24.00;;;;;11.75;100.00;100397.81;6267850;20;2836816;-68
2022/10/31 09:36:01;;;;;;;;;29.50;20.50;;;;;11.72;100.00;100401.53;6271254;20;2858684;-68
2022/10/31 09:38:30;;;;;;;;;26.00;18.50;;;;;11.78;100.00;100400.34;6269592;20;2848343;-72
2022/10/31 09:41:51;;;;;;;;;23.50;22.00;;;;;11.84;100.00;100400.00;6269755;20;2836711;-73
2022/10/31 09:44:58;;;;;;;;;27.00;22.50;;;;;11.67;100.00;100400.06;6269066;20;2835821;-70
2022/10/31 09:48:01;;;;;;;;;26.50;25.00;;;;;11.61;100.00;100403.94;6270583;20;2840907;-69
2022/10/31 09:50:36;;;;;;;;;32.33;27.00;;;;;11.80;100.00;100403.81;6271695;20;3589864;-71
2022/10/31 09:53:50;;;;;;;;;32.00;27.50;;;;;11.71;100.00;100404.31;6264222;20;2843085;-69
2022/10/31 09:56:22;;;;;;;;;24.50;19.50;;;;;11.72;100.00;100406.06;6267271;20;2841927;-69
2022/10/31 09:59:00;;;;;;;;;34.67;28.00;;;;;11.80;100.00;100398.44;6266311;20;2851366;-69
2022/10/31 10:01:35;;;;;;;;;43.33;34.00;;;;;11.94;100.00;100398.56;6292803;20;3626277;-68
2022/10/31 10:04:34;;;;;;;;;37.33;26.33;;;;;11.85;100.00;100397.22;6270983;20;3605602;-68
2022/10/31 10:07:44;;;;;;;;;46.67;32.33;;;;;11.90;100.00;100394.31;6267157;20;3596166;-71
2022/10/31 10:10:49;;;;;;;;;25.00;23.00;;;;;12.03;100.00;100400.75;6272783;20;2831598;-67
2022/10/31 10:14:12;;;;;;;;;28.00;26.00;;;;;11.70;100.00;100398.06;6271028;20;2842977;-67
2022/10/31 10:17:21;;;;;;;;;29.00;25.00;;;;;11.74;100.00;100404.13;6270108;20;2835763;-69
2022/10/31 10:20:34;;;;;;;;;26.00;25.00;;;;;11.71;100.00;100391.72;6274784;20;2840909;-69
2022/10/31 10:23:59;;;;;;;;;31.00;28.00;;;;;11.70;100.00;100399.91;6270838;20;2850345;-70
2022/10/31 10:27:05;;;;;;;;;34.33;29.00;;;;;11.85;100.00;100386.47;6307451;20;3610773;-69
2022/10/31 10:30:06;;;;;;;;;32.67;27.33;;;;;11.55;100.00;100385.44;6274735;20;3598343;-68
2022/10/31 10:33:07;;;;;;;;;22.50;21.50;;;;;11.72;100.00;100384.53;6270513;20;2844031;-68
2022/10/31 10:35:47;;;;;;;;;28.50;26.50;;;;;11.56;100.00;100369.25;6271486;20;2835730;-67
2022/10/31 10:38:32;;;;;;;;;82.33;76.33;;;;;12.14;100.00;100385.78;6273135;20;3635775;-68
2022/10/31 10:41:11;;;;;;;;;29.00;24.50;;;;;11.60;100.00;100376.16;6265326;20;2855546;-68
2022/10/31 10:43:40;;;;;;;;;26.00;22.50;;;;;12.17;100.00;100377.56;6266027;20;2839993;-68
2022/10/31 10:49:29;;;;;;;;;21.00;17.67;;;;;12.18;100.00;100382.84;6303558;20;3536745;-66
2022/10/31 10:52:13;;;;;;;;;37.00;33.00;;;;;12.07;100.00;100372.69;6274107;20;3613796;-68
2022/10/31 10:55:39;;;;;;;;;61.33;47.33;;;;;12.05;100.00;100374.59;6301900;20;3631570;-69
2022/10/31 10:58:10;;;;;;;;;28.00;26.33;;;;;11.92;100.00;100376.25;6270549;20;3579429;-69
2022/10/31 11:00:49;;;;;;;;;28.50;25.50;;;;;12.23;100.00;100375.38;6269617;20;2833631;-66
2022/10/31 11:03:18;;;;;;;;;29.33;26.67;;;;;12.26;100.00;100366.25;6276206;20;3577411;-67
2022/10/31 11:05:58;;;;;;;;;35.00;30.67;;;;;12.16;100.00;100370.44;6268066;20;3608617;-67
2022/10/31 11:08:37;;;;;;;;;26.00;23.00;;;;;12.17;100.00;100369.50;6297598;20;2840914;-66
2022/10/31 11:11:30;;;;;;;;;32.00;26.67;;;;;12.11;100.00;100367.13;6274195;20;3600296;-66
2022/10/31 11:14:14;;;;;;;;;30.50;26.50;;;;;12.08;100.00;100370.84;6300231;20;2845052;-67
2022/10/31 11:17:08;;;;;;;;;29.00;24.00;;;;;12.25;100.00;100359.16;6273439;20;3577319;-67
2022/10/31 11:19:37;;;;;;;;;27.50;26.50;;;;;12.26;100.00;100364.41;6266889;20;2844387;-67
2022/10/31 11:22:16;;;;;;;;;33.00;23.33;;;;;12.11;100.00;100364.44;6270606;20;2850447;-69
2022/10/31 11:24:46;;;;;;;;;30.33;26.00;;;;;11.95;100.00;100349.16;6303167;20;3592415;-68
2022/10/31 11:27:23;;;;;;;;;57.33;43.00;;;;;12.29;100.00;100353.47;6266628;20;3649221;-69
2022/10/31 11:29:53;;;;;;;;;41.67;34.00;;;;;12.13;100.00;100362.53;6266083;20;3601322;-68
2022/10/31 11:32:29;;;;;;;;;31.00;28.67;;;;;12.08;100.00;100350.22;6303695;20;3595236;-66